Time;durP1;ratioP1;P1;durP2;ratioP2;P2;SDS_P1;SDS_P2;PMS_P1;PMS_P2;Temp;Humidity;BMP_temperature;BMP_pressure;BME280_temperature;BME280_humidity;BME280_pressure;Samples;Min_cycle;Max_cycle;Signal;HPM_P1;HPM_P2
2022/03/12 00:00:49;;;;;;;11.90;7.57;;;5.90;60.30;;;;;;5094174;27;20338;-81
2022/03/12 00:03:16;;;;;;;11.03;7.07;;;5.90;60.50;;;;;;5097102;27;20364;-81
2022/03/12 00:05:52;;;;;;;10.10;6.83;;;5.90;60.40;;;;;;5115817;27;20086;-81
2022/03/12 00:08:43;;;;;;;13.60;7.80;;;5.90;60.50;;;;;;5132510;27;21130;-83
2022/03/12 00:11:21;;;;;;;10.70;7.13;;;5.90;60.30;;;;;;5113956;27;20219;-81
2022/03/12 00:13:49;;;;;;;13.27;6.93;;;5.90;61.30;;;;;;5115291;27;20069;-80
2022/03/12 00:16:18;;;;;;;11.90;7.30;;;5.90;60.70;;;;;;5129302;27;20088;-81
2022/03/12 00:18:52;;;;;;;11.33;7.70;;;5.90;60.60;;;;;;5113946;27;20051;-81
2022/03/12 00:21:20;;;;;;;11.97;7.17;;;5.80;60.60;;;;;;5098923;27;20050;-81
2022/03/12 00:23:50;;;;;;;9.73;6.90;;;5.90;60.50;;;;;;5108467;27;20065;-81
2022/03/12 00:26:22;;;;;;;11.53;7.70;;;5.80;60.70;;;;;;5087879;27;20051;-80
2022/03/12 00:28:48;;;;;;;11.80;7.32;;;5.80;60.50;;;;;;5106145;27;20409;-82
2022/03/12 00:31:14;;;;;;;11.23;7.50;;;5.80;60.10;;;;;;5114834;27;20026;-81
2022/03/12 00:33:39;;;;;;;17.60;7.57;;;5.80;60.40;;;;;;5109017;27;20100;-81
2022/03/12 00:36:06;;;;;;;11.27;7.03;;;5.80;60.60;;;;;;5112767;27;20482;-81
2022/03/12 00:38:32;;;;;;;10.60;7.83;;;5.80;60.50;;;;;;5101959;27;20042;-81
2022/03/12 00:40:58;;;;;;;12.47;7.93;;;5.80;60.40;;;;;;5069456;27;20049;-81
2022/03/12 00:43:23;;;;;;;15.40;7.27;;;5.80;60.40;;;;;;5131780;27;20031;-81
2022/03/12 00:45:49;;;;;;;13.57;8.57;;;5.80;60.50;;;;;;5098301;27;20045;-81
2022/03/12 00:48:16;;;;;;;11.47;7.27;;;5.80;60.50;;;;;;5095391;27;20130;-81
2022/03/12 00:50:42;;;;;;;11.73;7.97;;;5.80;60.50;;;;;;5095932;27;20058;-81
2022/03/12 00:53:08;;;;;;;11.10;7.83;;;5.80;60.40;;;;;;5097262;27;20039;-81
2022/03/12 00:55:35;;;;;;;13.73;7.93;;;5.80;60.50;;;;;;5086220;28;20062;-81
2022/03/12 00:58:01;;;;;;;12.20;7.67;;;5.80;60.90;;;;;;5106389;27;20057;-82
2022/03/12 01:00:27;;;;;;;10.83;7.50;;;5.80;60.90;;;;;;5095313;27;20051;-81
2022/03/12 01:02:54;;;;;;;14.70;7.97;;;5.80;60.80;;;;;;5117791;27;20049;-81
2022/03/12 01:05:39;;;;;;;11.77;6.87;;;5.80;61.00;;;;;;5118613;27;20054;-81
2022/03/12 01:08:05;;;;;;;13.70;7.23;;;5.80;61.20;;;;;;5089331;27;20055;-81
2022/03/12 01:10:31;;;;;;;11.63;7.90;;;5.70;61.50;;;;;;5098488;27;20043;-81
2022/03/12 01:12:57;;;;;;;11.20;7.00;;;5.70;61.60;;;;;;5088073;27;20042;-81
2022/03/12 01:15:23;;;;;;;14.00;7.57;;;5.70;61.50;;;;;;5071707;28;20490;-79
2022/03/12 01:17:48;;;;;;;11.57;7.40;;;5.70;61.70;;;;;;5096485;28;20047;-81
2022/03/12 01:20:14;;;;;;;14.70;8.33;;;5.70;61.90;;;;;;5113974;27;20081;-81
2022/03/12 01:22:41;;;;;;;13.03;7.70;;;5.70;62.10;;;;;;5095113;27;20104;-82
2022/03/12 01:25:07;;;;;;;13.60;7.93;;;5.60;62.00;;;;;;5119804;27;20058;-82
2022/03/12 01:27:34;;;;;;;10.37;7.93;;;5.60;62.00;;;;;;5099912;28;20054;-83
2022/03/12 01:30:00;;;;;;;13.87;7.97;;;5.70;62.00;;;;;;5135428;27;20121;-81
2022/03/12 01:32:26;;;;;;;13.93;7.30;;;5.70;61.90;;;;;;5110293;27;20126;-81
2022/03/12 01:34:52;;;;;;;12.10;8.07;;;5.70;62.20;;;;;;5107444;27;20062;-81
2022/03/12 01:37:19;;;;;;;11.70;7.53;;;5.60;62.10;;;;;;5078436;27;20050;-81
2022/03/12 01:39:49;;;;;;;15.47;8.00;;;5.60;62.00;;;;;;5084218;27;20047;-81
2022/03/12 01:42:19;;;;;;;12.33;7.27;;;5.60;62.10;;;;;;5122587;27;20066;-81
2022/03/12 01:44:45;;;;;;;13.27;7.70;;;5.60;62.10;;;;;;5125172;27;20084;-81
2022/03/12 01:47:11;;;;;;;10.77;7.50;;;5.60;62.10;;;;;;5098407;27;20047;-81
2022/03/12 01:49:37;;;;;;;13.63;8.23;;;5.60;62.30;;;;;;5101255;27;20053;-81
2022/03/12 01:52:05;;;;;;;11.87;7.33;;;5.60;62.20;;;;;;5099496;27;20046;-81
2022/03/12 01:54:31;;;;;;;12.47;7.93;;;5.60;62.50;;;;;;5110096;27;20047;-81
2022/03/12 01:56:58;;;;;;;12.67;8.20;;;5.60;62.50;;;;;;5098587;27;20546;-81
2022/03/12 01:59:24;;;;;;;12.10;7.37;;;5.60;62.60;;;;;;5107072;27;20042;-81
2022/03/12 02:01:52;;;;;;;11.60;7.73;;;5.60;62.60;;;;;;5085558;27;20053;-81
2022/03/12 02:04:29;;;;;;;13.07;8.10;;;5.60;62.70;;;;;;5105863;27;20130;-81
2022/03/12 02:06:58;;;;;;;10.10;7.47;;;5.50;62.80;;;;;;5088388;27;20052;-82
2022/03/12 02:09:23;;;;;;;10.97;7.80;;;5.50;63.00;;;;;;5100903;27;20049;-81
2022/03/12 02:11:50;;;;;;;12.10;7.53;;;5.50;62.80;;;;;;5089991;27;20046;-80
2022/03/12 02:14:26;;;;;;;10.90;7.80;;;5.50;63.00;;;;;;5098551;27;20059;-81
2022/03/12 02:16:58;;;;;;;14.27;8.60;;;5.50;63.40;;;;;;5122181;27;20054;-81
2022/03/12 02:19:26;;;;;;;12.87;7.57;;;5.50;63.50;;;;;;5116021;27;20074;-81
2022/03/12 02:21:55;;;;;;;14.23;7.90;;;5.50;63.30;;;;;;5121545;27;20089;-81
2022/03/12 02:24:23;;;;;;;11.70;8.00;;;5.50;63.50;;;;;;5116880;27;20047;-81
2022/03/12 02:26:49;;;;;;;14.07;7.97;;;5.50;63.70;;;;;;5097852;27;20098;-81
2022/03/12 02:29:20;;;;;;;14.80;8.50;;;5.50;63.60;;;;;;5108078;27;20081;-82
2022/03/12 02:31:56;;;;;;;12.63;8.18;;;5.50;64.00;;;;;;5109277;27;20077;-81
2022/03/12 02:34:44;;;;;;;11.77;8.20;;;5.40;63.90;;;;;;5116884;27;20058;-81
2022/03/12 02:37:11;;;;;;;11.47;7.40;;;5.40;64.20;;;;;;5112622;27;20046;-80
2022/03/12 02:39:39;;;;;;;12.83;7.77;;;5.40;64.10;;;;;;5103721;27;20085;-81
2022/03/12 02:42:06;;;;;;;11.47;8.23;;;5.40;64.70;;;;;;5116756;27;20573;-81
2022/03/12 02:44:33;;;;;;;11.60;8.10;;;5.30;64.60;;;;;;5087411;27;20046;-81
2022/03/12 02:47:22;;;;;;;13.53;8.67;;;5.30;64.90;;;;;;5107603;27;20047;-81
2022/03/12 02:50:02;;;;;;;11.17;8.30;;;5.30;65.40;;;;;;5125833;27;20055;-81
2022/03/12 02:52:29;;;;;;;11.07;7.93;;;5.30;65.30;;;;;;5109883;27;20093;-82
2022/03/12 02:54:57;;;;;;;14.27;8.00;;;5.30;65.40;;;;;;5113488;28;20776;-81
2022/03/12 02:57:27;;;;;;;14.37;8.07;;;5.20;65.40;;;;;;5129265;27;20679;-81
2022/03/12 02:59:55;;;;;;;12.50;8.30;;;5.30;65.70;;;;;;5111470;28;20385;-81
2022/03/12 03:02:38;;;;;;;13.00;8.40;;;5.20;65.50;;;;;;5110161;28;20916;-82
2022/03/12 03:05:06;;;;;;;11.77;8.33;;;5.20;65.80;;;;;;5117410;27;20050;-81
2022/03/12 03:07:35;;;;;;;12.60;8.23;;;5.20;65.50;;;;;;5117333;28;20043;-81
2022/03/12 03:10:02;;;;;;;14.27;8.67;;;5.30;65.90;;;;;;5114345;27;20058;-81
2022/03/12 03:12:28;;;;;;;12.13;8.17;;;5.20;65.50;;;;;;5123831;27;20065;-81
2022/03/12 03:14:54;;;;;;;14.93;8.00;;;5.30;65.50;;;;;;5102584;27;20039;-81
2022/03/12 03:17:19;;;;;;;14.90;8.00;;;5.30;65.60;;;;;;5115192;27;20251;-81
2022/03/12 03:19:45;;;;;;;12.73;8.23;;;5.30;65.70;;;;;;5091026;27;20053;-81
2022/03/12 03:22:12;;;;;;;12.27;8.33;;;5.30;65.90;;;;;;5091384;28;20040;-81
2022/03/12 03:24:38;;;;;;;13.27;8.70;;;5.30;66.20;;;;;;5133325;27;20046;-81
2022/03/12 03:27:04;;;;;;;13.57;7.33;;;5.20;65.90;;;;;;5097817;27;20042;-81
2022/03/12 03:29:33;;;;;;;13.90;7.97;;;5.20;65.80;;;;;;5129752;27;20062;-81
2022/03/12 03:32:02;;;;;;;15.80;7.87;;;5.20;65.80;;;;;;5090781;27;20043;-81
2022/03/12 03:34:30;;;;;;;11.23;7.77;;;5.20;65.90;;;;;;5112044;28;20153;-82
2022/03/12 03:36:56;;;;;;;12.47;7.50;;;5.20;65.90;;;;;;5102077;27;20214;-81
2022/03/12 03:39:21;;;;;;;12.43;8.13;;;5.20;66.10;;;;;;5103688;27;20514;-81
2022/03/12 03:41:48;;;;;;;13.87;8.27;;;5.20;66.20;;;;;;5118590;27;20046;-82
2022/03/12 03:44:19;;;;;;;10.77;7.57;;;5.20;66.40;;;;;;5092219;27;20039;-81
2022/03/12 03:46:45;;;;;;;11.88;8.00;;;5.20;66.30;;;;;;5131193;27;20066;-81
2022/03/12 03:49:11;;;;;;;12.17;8.23;;;5.20;66.50;;;;;;5082107;28;20047;-82
2022/03/12 03:51:41;;;;;;;10.83;7.30;;;5.20;66.20;;;;;;5086676;28;20567;-82
2022/03/12 03:54:09;;;;;;;14.27;7.90;;;5.20;66.60;;;;;;5085180;27;20881;-81
2022/03/12 03:56:38;;;;;;;14.07;8.10;;;5.20;66.50;;;;;;5084539;27;20331;-81
2022/03/12 03:59:05;;;;;;;14.83;8.47;;;5.20;66.70;;;;;;5083075;28;20043;-81
2022/03/12 04:01:31;;;;;;;12.70;7.83;;;5.20;66.70;;;;;;5096301;27;20050;-82
2022/03/12 04:03:57;;;;;;;12.27;7.77;;;5.10;66.60;;;;;;5090290;28;20082;-81
2022/03/12 04:06:25;;;;;;;12.97;8.00;;;5.10;66.60;;;;;;5085102;27;20043;-80
2022/03/12 04:08:52;;;;;;;12.57;7.40;;;5.10;66.80;;;;;;5119007;27;20107;-81
2022/03/12 04:11:22;;;;;;;15.50;7.80;;;5.00;66.90;;;;;;5109098;27;20497;-81
2022/03/12 04:13:50;;;;;;;11.47;7.23;;;5.00;66.90;;;;;;5106299;27;20046;-80
2022/03/12 04:16:17;;;;;;;12.50;7.67;;;5.00;66.90;;;;;;5115764;27;20043;-81
2022/03/12 04:18:46;;;;;;;12.53;7.77;;;5.00;66.90;;;;;;5104249;28;20058;-81
2022/03/12 04:21:14;;;;;;;13.20;7.83;;;5.00;66.90;;;;;;5092609;27;20052;-80
2022/03/12 04:23:41;;;;;;;10.23;7.93;;;4.90;67.00;;;;;;5109543;28;20032;-81
2022/03/12 04:26:07;;;;;;;14.43;7.70;;;4.90;67.30;;;;;;5093692;28;20039;-81
2022/03/12 04:28:33;;;;;;;12.20;7.73;;;4.80;67.40;;;;;;5108358;27;20054;-81
2022/03/12 04:31:04;;;;;;;12.20;7.33;;;4.80;67.40;;;;;;5112871;28;20955;-80
2022/03/12 04:33:30;;;;;;;11.87;7.70;;;4.80;67.40;;;;;;5099092;28;20079;-81
2022/03/12 04:35:57;;;;;;;12.37;7.70;;;4.80;67.50;;;;;;5098710;27;20050;-81
2022/03/12 04:38:25;;;;;;;14.83;7.63;;;4.90;67.40;;;;;;5111539;28;20050;-81
2022/03/12 04:40:55;;;;;;;11.90;7.03;;;4.80;67.50;;;;;;5109576;27;20043;-81
2022/03/12 04:43:21;;;;;;;11.37;7.30;;;4.80;67.50;;;;;;5105331;27;20035;-80
2022/03/12 04:45:47;;;;;;;11.90;7.70;;;4.80;67.40;;;;;;5118033;27;20043;-80
2022/03/12 04:48:15;;;;;;;11.57;7.13;;;4.80;67.70;;;;;;5091112;27;20047;-81
2022/03/12 04:50:41;;;;;;;12.57;7.17;;;4.70;67.70;;;;;;5117922;27;20047;-81
2022/03/12 04:53:08;;;;;;;11.07;6.77;;;4.80;67.60;;;;;;5109758;27;20052;-81
2022/03/12 04:55:36;;;;;;;11.00;7.47;;;4.70;67.60;;;;;;5123620;27;20054;-82
2022/03/12 04:58:02;;;;;;;11.27;7.07;;;4.80;67.60;;;;;;5109922;27;20043;-81
2022/03/12 05:00:30;;;;;;;12.67;6.90;;;4.70;67.60;;;;;;5117718;28;20031;-83
2022/03/12 05:03:03;;;;;;;10.23;6.63;;;4.70;67.50;;;;;;5120368;27;20113;-80
2022/03/12 05:05:29;;;;;;;10.70;7.10;;;4.70;67.90;;;;;;5108863;28;20050;-81
2022/03/12 05:07:56;;;;;;;10.40;7.27;;;4.60;67.70;;;;;;5112648;27;20096;-80
2022/03/12 05:10:26;;;;;;;9.77;6.83;;;4.60;67.90;;;;;;5098243;28;20057;-81
2022/03/12 05:12:59;;;;;;;10.47;7.03;;;4.60;68.00;;;;;;5089243;28;20080;-80
2022/03/12 05:15:27;;;;;;;12.60;6.57;;;4.60;68.00;;;;;;5086370;28;20082;-80
2022/03/12 05:17:56;;;;;;;10.47;7.43;;;4.60;67.80;;;;;;5097222;28;20107;-80
2022/03/12 05:20:25;;;;;;;11.83;7.23;;;4.50;67.90;;;;;;5108430;28;20091;-80
2022/03/12 05:22:51;;;;;;;11.87;6.60;;;4.50;67.70;;;;;;5101438;28;20688;-80
2022/03/12 05:25:19;;;;;;;10.63;7.00;;;4.50;67.90;;;;;;5108853;28;20044;-80
2022/03/12 05:27:51;;;;;;;10.70;6.87;;;4.50;67.60;;;;;;5128565;28;20114;-80
2022/03/12 05:30:17;;;;;;;10.77;6.82;;;4.50;67.30;;;;;;5131717;28;20047;-80
2022/03/12 05:32:43;;;;;;;13.37;7.50;;;4.40;67.30;;;;;;5093173;28;20050;-80
2022/03/12 05:35:09;;;;;;;11.33;7.33;;;4.50;67.50;;;;;;5105928;28;20051;-81
2022/03/12 05:37:36;;;;;;;10.77;7.40;;;4.40;67.10;;;;;;5110982;28;20133;-81
2022/03/12 05:40:07;;;;;;;10.03;6.60;;;4.40;67.20;;;;;;5085327;28;20057;-80
2022/03/12 05:42:34;;;;;;;12.80;8.00;;;4.40;67.10;;;;;;5121801;27;20791;-80
2022/03/12 05:45:08;;;;;;;9.33;6.87;;;4.40;67.30;;;;;;5093040;28;20100;-80
2022/03/12 05:47:35;;;;;;;11.30;6.87;;;4.40;67.50;;;;;;5129620;28;20051;-80
2022/03/12 05:50:04;;;;;;;9.43;7.53;;;4.40;67.30;;;;;;5092934;28;20151;-80
2022/03/12 05:52:30;;;;;;;11.33;6.87;;;4.40;67.40;;;;;;5102079;28;20055;-80
2022/03/12 05:54:56;;;;;;;9.47;6.30;;;4.40;67.30;;;;;;5103305;28;21005;-80
2022/03/12 05:57:22;;;;;;;12.27;7.47;;;4.30;67.80;;;;;;5086092;28;20046;-80
2022/03/12 05:59:49;;;;;;;12.17;7.27;;;4.30;67.70;;;;;;5071634;28;20046;-80
2022/03/12 06:02:16;;;;;;;9.43;6.63;;;4.30;67.90;;;;;;5095644;28;20067;-80
2022/03/12 06:04:43;;;;;;;11.33;7.00;;;4.30;67.80;;;;;;5093088;28;20571;-80
2022/03/12 06:07:09;;;;;;;11.70;6.50;;;4.30;68.00;;;;;;5100350;28;20039;-80
2022/03/12 06:09:36;;;;;;;12.57;7.43;;;4.30;68.20;;;;;;5080886;28;20044;-80
2022/03/12 06:12:02;;;;;;;12.87;7.57;;;4.30;68.00;;;;;;5111228;28;20111;-80
2022/03/12 06:14:30;;;;;;;11.27;7.10;;;4.30;68.40;;;;;;5089155;28;20042;-80
2022/03/12 06:16:55;;;;;;;10.43;6.33;;;4.30;68.20;;;;;;5092914;28;20053;-80
2022/03/12 06:19:22;;;;;;;10.40;6.63;;;4.30;68.70;;;;;;5068495;28;20143;-81
2022/03/12 06:21:48;;;;;;;11.57;7.40;;;4.40;68.30;;;;;;5094905;28;20099;-81
2022/03/12 06:24:14;;;;;;;10.50;6.40;;;4.40;68.50;;;;;;5102870;27;20071;-81
2022/03/12 06:26:43;;;;;;;12.37;6.67;;;4.40;68.10;;;;;;5094405;28;20089;-81
2022/03/12 06:29:13;;;;;;;12.47;7.47;;;4.50;68.30;;;;;;5111583;28;20039;-80
2022/03/12 06:31:42;;;;;;;11.70;6.80;;;4.50;67.70;;;;;;5100866;27;20047;-80
2022/03/12 06:34:10;;;;;;;15.23;7.70;;;4.60;68.10;;;;;;5094555;27;20080;-82
2022/03/12 06:36:42;;;;;;;11.93;7.30;;;4.60;68.20;;;;;;5105971;27;20047;-81
2022/03/12 06:39:08;;;;;;;12.15;6.93;;;4.60;68.20;;;;;;5086431;27;20046;-80
2022/03/12 06:41:41;;;;;;;12.07;7.23;;;4.60;68.10;;;;;;5109985;27;20043;-81
2022/03/12 06:44:08;;;;;;;15.20;7.17;;;4.70;67.90;;;;;;5110503;28;20051;-80
2022/03/12 06:46:35;;;;;;;10.17;6.70;;;4.70;68.40;;;;;;5098948;28;20055;-81
2022/03/12 06:49:05;;;;;;;8.87;6.13;;;4.60;68.30;;;;;;5101290;27;20146;-81
2022/03/12 06:51:31;;;;;;;13.97;6.50;;;4.70;68.50;;;;;;5075247;27;21066;-78
2022/03/12 06:53:58;;;;;;;12.97;7.13;;;4.70;68.80;;;;;;5109710;28;20055;-76
2022/03/12 06:56:23;;;;;;;11.23;6.60;;;4.80;68.80;;;;;;5100396;28;20071;-81
2022/03/12 06:58:49;;;;;;;14.03;7.07;;;4.80;68.50;;;;;;5125615;27;20047;-81
2022/03/12 07:01:15;;;;;;;10.83;7.20;;;4.80;68.30;;;;;;5077364;27;20454;-81
2022/03/12 07:03:40;;;;;;;12.13;7.03;;;4.90;68.30;;;;;;5073328;28;20036;-81
2022/03/12 07:06:07;;;;;;;12.20;7.10;;;5.00;68.40;;;;;;5076787;28;20089;-81
2022/03/12 07:08:35;;;;;;;10.17;6.57;;;5.00;68.20;;;;;;5078204;28;20047;-83
2022/03/12 07:11:01;;;;;;;13.23;6.30;;;5.10;68.10;;;;;;5102216;28;20088;-87
2022/03/12 07:13:28;;;;;;;11.77;6.90;;;5.10;68.60;;;;;;5061163;27;20028;-82
2022/03/12 07:15:54;;;;;;;11.73;7.83;;;5.20;67.80;;;;;;5087516;28;20075;-86
2022/03/12 07:18:20;;;;;;;13.10;6.87;;;5.20;67.70;;;;;;5061796;27;20043;-82
2022/03/12 07:20:46;;;;;;;11.60;7.17;;;5.30;68.10;;;;;;5116184;27;20078;-87
2022/03/12 07:23:11;;;;;;;11.93;6.87;;;5.30;68.30;;;;;;5065326;28;20055;-81
2022/03/12 07:25:37;;;;;;;10.63;7.20;;;5.40;68.20;;;;;;5080119;27;20036;-83
2022/03/12 07:28:04;;;;;;;11.57;7.10;;;5.40;68.20;;;;;;5082688;27;20396;-84
2022/03/12 07:30:30;;;;;;;10.00;6.80;;;5.50;68.40;;;;;;5099666;27;20054;-83
2022/03/12 07:32:56;;;;;;;10.93;6.80;;;5.50;68.50;;;;;;5096918;28;20077;-83
2022/03/12 07:35:22;;;;;;;12.67;7.03;;;5.60;68.40;;;;;;5097378;28;20491;-82
2022/03/12 07:37:49;;;;;;;12.67;7.53;;;5.50;68.30;;;;;;5118568;27;20063;-83
2022/03/12 07:40:16;;;;;;;13.97;7.00;;;5.60;68.50;;;;;;5068341;28;20036;-83
2022/03/12 07:42:42;;;;;;;12.77;7.40;;;5.50;68.70;;;;;;5113351;27;20051;-83
2022/03/12 07:45:09;;;;;;;14.33;7.37;;;5.60;68.90;;;;;;5099240;28;20054;-83
2022/03/12 07:47:37;;;;;;;10.60;6.73;;;5.50;68.90;;;;;;5071383;27;20054;-82
2022/03/12 07:50:05;;;;;;;12.33;6.93;;;5.60;68.90;;;;;;5113227;27;20054;-83
2022/03/12 07:52:31;;;;;;;11.27;6.93;;;5.60;69.30;;;;;;5117824;27;20102;-83
2022/03/12 07:54:56;;;;;;;9.70;7.03;;;5.60;69.20;;;;;;5081209;27;20074;-83
2022/03/12 07:57:26;;;;;;;10.80;6.80;;;5.80;69.30;;;;;;5100001;27;20032;-83
2022/03/12 07:59:53;;;;;;;13.17;7.63;;;5.90;69.10;;;;;;5084170;27;20079;-83
2022/03/12 08:02:19;;;;;;;10.17;7.00;;;6.10;69.00;;;;;;5116383;27;20050;-83
2022/03/12 08:04:45;;;;;;;11.57;7.30;;;6.20;68.90;;;;;;5088456;27;20056;-84
2022/03/12 08:07:10;;;;;;;12.53;7.17;;;6.40;68.70;;;;;;5091556;27;20047;-82
2022/03/12 08:09:36;;;;;;;11.53;6.93;;;6.60;67.70;;;;;;5081736;27;20130;-81
2022/03/12 08:12:03;;;;;;;14.80;7.60;;;6.70;68.20;;;;;;5113137;27;20064;-81
2022/03/12 08:14:32;;;;;;;14.70;7.23;;;6.90;67.60;;;;;;5093384;27;20043;-80
2022/03/12 08:16:59;;;;;;;13.27;7.57;;;7.00;67.20;;;;;;5117919;27;20058;-81
2022/03/12 08:19:24;;;;;;;13.07;7.40;;;7.10;66.90;;;;;;5115725;27;20039;-80
2022/03/12 08:21:51;;;;;;;12.00;7.07;;;7.20;66.90;;;;;;5091496;27;20043;-80
2022/03/12 08:24:18;;;;;;;11.27;6.83;;;7.40;66.50;;;;;;5114642;27;20043;-80
2022/03/12 08:26:48;;;;;;;12.53;8.10;;;7.40;66.50;;;;;;5116510;27;20141;-80
2022/03/12 08:29:18;;;;;;;13.47;8.27;;;7.50;66.40;;;;;;5097562;27;20046;-80
2022/03/12 08:31:44;;;;;;;9.97;7.33;;;7.50;66.10;;;;;;5116921;27;20087;-80
2022/03/12 08:34:11;;;;;;;11.47;8.10;;;7.70;66.50;;;;;;5114780;27;20068;-80
2022/03/12 08:36:37;;;;;;;13.40;7.63;;;7.70;66.50;;;;;;5134244;27;20035;-80
2022/03/12 08:39:03;;;;;;;11.13;8.07;;;7.80;66.90;;;;;;5113269;27;20066;-80
2022/03/12 08:41:29;;;;;;;16.97;7.43;;;7.80;66.00;;;;;;5099082;27;20058;-80
2022/03/12 08:43:56;;;;;;;12.97;8.60;;;8.00;66.50;;;;;;5097712;27;20043;-80
2022/03/12 08:46:21;;;;;;;12.60;7.93;;;8.10;66.50;;;;;;5095186;27;20063;-81
2022/03/12 08:48:47;;;;;;;14.07;8.30;;;8.30;66.80;;;;;;5135990;27;20093;-80
2022/03/12 08:51:13;;;;;;;12.43;7.87;;;8.50;67.00;;;;;;5137135;27;20079;-81
2022/03/12 08:53:39;;;;;;;11.93;7.47;;;8.70;66.20;;;;;;5116186;27;20043;-80
2022/03/12 08:56:05;;;;;;;14.87;8.50;;;8.80;65.80;;;;;;5101645;27;20123;-81
2022/03/12 08:58:32;;;;;;;13.93;8.87;;;8.90;65.90;;;;;;5101243;27;20031;-80
2022/03/12 09:01:00;;;;;;;15.00;8.80;;;9.10;66.10;;;;;;5097881;27;20042;-81
2022/03/12 09:03:27;;;;;;;13.37;8.90;;;9.20;65.90;;;;;;5119761;27;20109;-80
2022/03/12 09:05:53;;;;;;;12.97;8.50;;;9.30;65.60;;;;;;5094401;27;20036;-81
2022/03/12 09:08:19;;;;;;;12.23;8.07;;;9.40;65.60;;;;;;5101127;27;20035;-80
2022/03/12 09:10:46;;;;;;;15.07;8.47;;;9.50;65.80;;;;;;5118049;27;20065;-80
2022/03/12 09:13:16;;;;;;;13.63;7.87;;;9.60;66.30;;;;;;5118279;27;20084;-80
2022/03/12 09:15:42;;;;;;;12.93;8.57;;;9.70;66.60;;;;;;5096580;27;20295;-80
2022/03/12 09:18:10;;;;;;;13.80;8.17;;;9.80;66.40;;;;;;5117633;27;20512;-81
2022/03/12 09:20:43;;;;;;;12.10;7.77;;;9.90;66.60;;;;;;5118582;27;20405;-80
2022/03/12 09:23:10;;;;;;;12.63;8.40;;;9.90;66.90;;;;;;5134907;27;20079;-81
2022/03/12 09:25:36;;;;;;;11.40;8.10;;;10.00;66.50;;;;;;5096999;27;20119;-80
2022/03/12 09:28:02;;;;;;;12.33;8.43;;;10.10;66.70;;;;;;5096504;27;20038;-81
2022/03/12 09:30:28;;;;;;;13.83;8.27;;;10.20;67.00;;;;;;5134325;27;20102;-80
2022/03/12 09:32:53;;;;;;;12.87;8.43;;;10.30;66.70;;;;;;5103384;27;20043;-80
2022/03/12 09:35:20;;;;;;;12.20;8.23;;;10.40;66.80;;;;;;5079927;27;20039;-80
2022/03/12 09:37:46;;;;;;;11.73;8.27;;;10.60;67.00;;;;;;5097888;27;20102;-81
2022/03/12 09:40:15;;;;;;;13.27;8.57;;;10.60;66.90;;;;;;5094644;27;20045;-80
2022/03/12 09:42:44;;;;;;;16.77;8.47;;;10.70;67.00;;;;;;5136102;27;20042;-80
2022/03/12 09:45:12;;;;;;;14.10;8.40;;;10.80;67.30;;;;;;5134230;27;20576;-80
2022/03/12 09:47:37;;;;;;;14.83;8.67;;;11.00;67.60;;;;;;5112289;28;20159;-80
2022/03/12 09:50:04;;;;;;;11.97;8.17;;;11.10;67.10;;;;;;5074761;28;20054;-80
2022/03/12 09:52:33;;;;;;;12.27;7.93;;;11.20;67.50;;;;;;5098088;28;20833;-84
2022/03/12 09:54:59;;;;;;;13.60;9.23;;;11.30;67.30;;;;;;5091221;27;20047;-81
2022/03/12 09:57:25;;;;;;;15.10;9.47;;;11.50;68.00;;;;;;5083470;27;20074;-82
2022/03/12 09:59:50;;;;;;;12.87;8.30;;;11.60;68.40;;;;;;5119971;27;20047;-82
2022/03/12 10:02:16;;;;;;;15.57;8.73;;;11.70;67.70;;;;;;5081055;27;20139;-80
2022/03/12 10:04:44;;;;;;;14.00;9.10;;;11.90;68.00;;;;;;5137455;27;20066;-78
2022/03/12 10:07:10;;;;;;;20.23;10.50;;;12.00;68.30;;;;;;5097477;27;20047;-79
2022/03/12 10:09:39;;;;;;;16.00;10.27;;;12.10;67.80;;;;;;5133149;27;20223;-80
2022/03/12 10:12:05;;;;;;;15.43;9.13;;;12.20;68.40;;;;;;5136991;27;20126;-79
2022/03/12 10:14:32;;;;;;;14.97;9.50;;;12.30;68.70;;;;;;5135049;27;20035;-78
2022/03/12 10:17:02;;;;;;;19.93;11.47;;;12.40;69.80;;;;;;5131760;27;20071;-79
2022/03/12 10:19:36;;;;;;;17.77;9.53;;;12.40;69.90;;;;;;5126669;27;20048;-79
2022/03/12 10:22:03;;;;;;;16.00;9.43;;;12.50;70.30;;;;;;5120018;27;20082;-79
2022/03/12 10:24:28;;;;;;;17.63;9.60;;;12.60;70.60;;;;;;5114797;28;20046;-79
2022/03/12 10:26:54;;;;;;;16.07;9.70;;;12.70;70.70;;;;;;5129353;27;20047;-79
2022/03/12 10:29:20;;;;;;;16.07;8.50;;;12.70;70.90;;;;;;5129353;27;20058;-79
2022/03/12 10:31:46;;;;;;;14.00;9.63;;;12.70;71.70;;;;;;5134181;27;20153;-79
2022/03/12 10:34:22;;;;;;;12.13;8.60;;;12.80;73.00;;;;;;5132623;27;20043;-79
2022/03/12 10:36:50;;;;;;;13.57;8.87;;;12.80;75.20;;;;;;5114677;27;20517;-80
2022/03/12 10:39:34;;;;;;;14.90;8.97;;;12.90;75.90;;;;;;5129864;27;20411;-82
2022/03/12 10:42:01;;;;;;;13.13;9.63;;;13.00;77.50;;;;;;5128507;27;20587;-79
2022/03/12 10:44:37;;;;;;;11.77;8.70;;;13.00;76.80;;;;;;5098978;27;20043;-79
2022/03/12 10:47:14;;;;;;;13.40;8.60;;;13.10;78.50;;;;;;5127686;27;20270;-79
2022/03/12 10:49:54;;;;;;;12.87;8.60;;;13.20;78.20;;;;;;5118872;27;20043;-79
2022/03/12 10:52:20;;;;;;;12.37;8.47;;;13.20;77.90;;;;;;5124816;27;20046;-78
2022/03/12 10:54:45;;;;;;;12.90;9.37;;;13.30;78.20;;;;;;5126826;27;20699;-80
2022/03/12 10:57:11;;;;;;;13.37;9.43;;;13.30;78.20;;;;;;5113283;27;20058;-79
2022/03/12 10:59:37;;;;;;;16.20;12.37;;;13.30;77.90;;;;;;5110250;27;20039;-78
2022/03/12 11:02:04;;;;;;;12.10;9.87;;;13.30;78.40;;;;;;5122115;27;20116;-78
2022/03/12 11:04:33;;;;;;;13.53;9.37;;;13.40;79.00;;;;;;5128557;27;20058;-77
2022/03/12 11:07:19;;;;;;;14.13;9.93;;;13.40;78.40;;;;;;5131800;27;20047;-80
2022/03/12 11:09:46;;;;;;;15.83;9.67;;;13.40;77.90;;;;;;5127452;27;20491;-80
2022/03/12 11:12:33;;;;;;;13.17;9.23;;;13.50;78.40;;;;;;5127372;27;20102;-79
2022/03/12 11:15:08;;;;;;;14.97;10.23;;;13.60;78.70;;;;;;5128418;27;20126;-83
2022/03/12 11:17:48;;;;;;;13.27;9.20;;;13.60;77.60;;;;;;5129657;27;20058;-80
2022/03/12 11:20:18;;;;;;;11.97;8.87;;;13.60;79.70;;;;;;5130874;27;20047;-80
2022/03/12 11:22:49;;;;;;;15.17;9.53;;;13.60;79.30;;;;;;5130317;27;20050;-80
2022/03/12 11:25:19;;;;;;;;;;;13.50;80.30;;;;;;5129883;27;20129;-80
2022/03/12 11:27:49;;;;;;;12.73;9.27;;;13.40;82.40;;;;;;5125556;27;19934;-80
2022/03/12 11:30:18;;;;;;;15.03;9.17;;;13.40;81.30;;;;;;5125180;27;20047;-80
2022/03/12 11:32:46;;;;;;;13.47;8.93;;;13.40;82.50;;;;;;5133506;27;20057;-80
2022/03/12 11:35:18;;;;;;;12.23;8.37;;;13.60;83.10;;;;;;5099282;27;20100;-80
2022/03/12 11:37:44;;;;;;;11.23;8.43;;;13.70;85.50;;;;;;5128722;27;20076;-80
2022/03/12 11:40:18;;;;;;;13.60;9.07;;;13.80;84.30;;;;;;5130337;27;20047;-79
2022/03/12 11:42:44;;;;;;;12.00;8.77;;;13.90;83.30;;;;;;5135685;27;20047;-80
2022/03/12 11:45:15;;;;;;;11.27;9.27;;;13.90;83.30;;;;;;5115675;27;20089;-80
2022/03/12 11:47:44;;;;;;;15.00;9.17;;;13.80;84.20;;;;;;5114345;27;20054;-78
2022/03/12 11:50:16;;;;;;;13.77;8.93;;;13.80;84.50;;;;;;5129695;27;20047;-78
2022/03/12 11:52:43;;;;;;;18.05;9.98;;;13.90;86.20;;;;;;5129604;27;20039;-78
2022/03/12 11:55:17;;;;;;;22.63;11.27;;;13.90;85.20;;;;;;5114809;27;20050;-79
2022/03/12 11:57:46;;;;;;;14.00;9.13;;;13.80;85.40;;;;;;5130452;27;20047;-78
2022/03/12 12:00:22;;;;;;;13.13;9.00;;;13.70;88.00;;;;;;5113038;27;20035;-80
2022/03/12 12:02:48;;;;;;;12.27;8.90;;;13.60;89.50;;;;;;5134289;27;20402;-79
2022/03/12 12:05:17;;;;;;;14.87;9.60;;;13.50;89.90;;;;;;5136015;27;20047;-80
2022/03/12 12:07:45;;;;;;;14.90;9.47;;;13.40;91.00;;;;;;5107788;28;20494;-79
2022/03/12 12:10:13;;;;;;;15.17;9.73;;;13.40;91.10;;;;;;5128352;27;20047;-79
2022/03/12 12:12:40;;;;;;;11.83;8.50;;;13.50;92.00;;;;;;5106976;28;20043;-81
2022/03/12 12:15:15;;;;;;;13.17;8.07;;;13.60;92.00;;;;;;5127857;27;20064;-80
2022/03/12 12:17:42;;;;;;;12.80;8.20;;;13.80;91.60;;;;;;5098964;27;20043;-80
2022/03/12 12:20:09;;;;;;;10.83;8.37;;;14.00;91.50;;;;;;5116742;27;20044;-80
2022/03/12 12:22:34;;;;;;;15.90;8.40;;;14.40;91.40;;;;;;5117077;27;20094;-80
2022/03/12 12:25:03;;;;;;;14.97;7.67;;;14.50;88.40;;;;;;5109222;27;20083;-81
2022/03/12 12:27:52;;;;;;;13.33;7.73;;;14.40;87.40;;;;;;5103786;27;20048;-78
2022/03/12 12:30:38;;;;;;;11.00;7.20;;;14.40;88.80;;;;;;5133255;27;20043;-79
2022/03/12 12:33:26;;;;;;;14.17;7.90;;;14.40;88.30;;;;;;5113420;28;20035;-79
2022/03/12 12:36:08;;;;;;;12.57;8.63;;;14.40;88.10;;;;;;5133051;27;20047;-78
2022/03/12 12:38:33;;;;;;;12.40;8.52;;;14.30;89.70;;;;;;5105629;27;20478;-79
2022/03/12 12:41:03;;;;;;;12.37;8.03;;;14.40;89.00;;;;;;5112805;28;20048;-79
2022/03/12 12:43:41;;;;;;;9.97;7.10;;;14.50;89.70;;;;;;5123845;27;20088;-79
2022/03/12 12:46:13;;;;;;;11.00;6.77;;;14.50;89.60;;;;;;5132143;27;20133;-78
2022/03/12 12:48:48;;;;;;;10.93;7.30;;;14.50;87.50;;;;;;5119501;27;20573;-78
2022/03/12 12:51:20;;;;;;;11.23;8.03;;;14.50;88.20;;;;;;5112034;27;20061;-78